Time;durP1;ratioP1;P1;durP2;ratioP2;P2;SDS_P1;SDS_P2;PMS_P1;PMS_P2;Temp;Humidity;BMP_temperature;BMP_pressure;BME280_temperature;BME280_humidity;BME280_pressure;Samples;Min_cycle;Max_cycle;Signal;HPM_P1;HPM_P2
2022/09/30 00:00:34;;;;;;;5.37;4.43;;;;;;;3.68;100.00;100134.69;5004765;28;20049;-81
2022/09/30 00:03:01;;;;;;;7.80;4.80;;;;;;;3.65;100.00;100146.03;5008032;28;20049;-79
2022/09/30 00:05:27;;;;;;;7.63;4.43;;;;;;;3.65;100.00;100138.19;5031244;28;20030;-79
2022/09/30 00:07:54;;;;;;;5.43;3.70;;;;;;;3.62;100.00;100139.94;5006652;28;20049;-80
2022/09/30 00:10:21;;;;;;;8.83;4.60;;;;;;;3.63;100.00;100144.31;4985207;28;20057;-79
2022/09/30 00:12:47;;;;;;;7.77;4.40;;;;;;;3.61;100.00;100144.28;4998030;28;20413;-79
2022/09/30 00:15:14;;;;;;;15.67;5.17;;;;;;;3.60;100.00;100139.91;5019614;28;20045;-80
2022/09/30 00:17:41;;;;;;;7.47;5.03;;;;;;;3.66;100.00;100145.16;5016165;28;20568;-79
2022/09/30 00:20:08;;;;;;;7.93;5.43;;;;;;;3.60;100.00;100144.28;5013227;28;20045;-79
2022/09/30 00:22:35;;;;;;;6.90;4.40;;;;;;;3.61;100.00;100138.19;5001191;28;20141;-81
2022/09/30 00:25:03;;;;;;;6.10;4.33;;;;;;;3.55;100.00;100138.22;5016539;28;20038;-80
2022/09/30 00:27:29;;;;;;;8.53;4.70;;;;;;;3.57;100.00;100145.16;5008428;28;20478;-79
2022/09/30 00:29:56;;;;;;;10.60;5.43;;;;;;;3.53;100.00;100145.16;5037455;28;20052;-79
2022/09/30 00:32:22;;;;;;;8.00;4.77;;;;;;;3.44;100.00;100142.53;5006515;28;20045;-79
2022/09/30 00:34:49;;;;;;;8.30;5.83;;;;;;;3.59;100.00;100142.53;5021036;28;20433;-80
2022/09/30 00:37:16;;;;;;;6.57;4.23;;;;;;;3.66;100.00;100145.16;5047416;23;20442;-80
2022/09/30 00:39:42;;;;;;;7.73;4.77;;;;;;;3.52;100.00;100144.28;4972711;28;20101;-80
2022/09/30 00:42:13;;;;;;;6.27;4.40;;;;;;;3.44;100.00;100147.75;4975219;28;20454;-79
2022/09/30 00:44:49;;;;;;;6.83;4.70;;;;;;;3.38;100.00;100153.88;4969216;28;20034;-78
2022/09/30 00:47:49;;;;;;;6.83;4.40;;;;;;;3.41;100.00;100153.00;4972083;28;20047;-78
2022/09/30 00:50:36;;;;;;;8.63;4.53;;;;;;;3.38;100.00;100152.13;4956185;28;20046;-79
2022/09/30 00:53:33;;;;;;;7.43;4.73;;;;;;;3.42;100.00;100157.34;4968755;28;20118;-81
2022/09/30 00:56:08;;;;;;;6.77;4.53;;;;;;;3.37;100.00;100158.22;4964132;28;20114;-80
2022/09/30 00:58:51;;;;;;;7.63;4.38;;;;;;;3.40;100.00;100157.34;4988438;28;20043;-81
2022/09/30 01:01:19;;;;;;;5.50;4.50;;;;;;;3.39;100.00;100155.63;4956052;28;20065;-81
2022/09/30 01:03:59;;;;;;;5.67;4.17;;;;;;;3.37;100.00;100159.97;4986001;28;21486;-81
2022/09/30 01:06:25;;;;;;;7.70;4.43;;;;;;;3.38;100.00;100154.75;4969977;28;20727;-80
2022/09/30 01:08:52;;;;;;;7.47;4.83;;;;;;;3.39;100.00;100161.69;4955438;28;20543;-81
2022/09/30 01:11:19;;;;;;;7.50;4.77;;;;;;;3.33;100.00;100166.03;4954712;28;20035;-80
2022/09/30 01:13:48;;;;;;;6.80;4.27;;;;;;;3.35;100.00;100165.16;4955476;28;20089;-81
2022/09/30 01:16:49;;;;;;;6.23;3.87;;;;;;;3.30;100.00;100172.16;4987678;28;20030;-81
2022/09/30 01:19:28;;;;;;;7.53;4.30;;;;;;;3.28;100.00;100176.50;4945428;28;20051;-81
2022/09/30 01:22:06;;;;;;;7.00;4.60;;;;;;;3.20;100.00;100175.63;4959608;28;21968;-81
2022/09/30 01:24:45;;;;;;;7.00;3.87;;;;;;;3.14;100.00;100170.38;4962930;28;20047;-82
2022/09/30 01:27:16;;;;;;;6.60;4.33;;;;;;;3.14;100.00;100164.28;4970996;28;20090;-80
2022/09/30 01:30:05;;;;;;;7.17;4.13;;;;;;;3.15;100.00;100163.41;4971760;28;20571;-80
2022/09/30 01:33:00;;;;;;;8.93;4.77;;;;;;;3.20;100.00;100154.72;4971056;28;20520;-81
2022/09/30 01:35:52;;;;;;;6.77;4.07;;;;;;;3.14;100.00;100156.47;4949711;28;20034;-80
2022/09/30 01:38:28;;;;;;;7.23;5.03;;;;;;;3.11;100.00;100157.28;4976720;28;20086;-80
2022/09/30 01:41:05;;;;;;;7.87;4.47;;;;;;;3.09;100.00;100161.66;4948527;28;20046;-81
2022/09/30 01:43:43;;;;;;;8.73;4.93;;;;;;;3.03;100.00;100164.28;4940023;28;20047;-80
2022/09/30 01:46:32;;;;;;;7.70;4.67;;;;;;;3.03;100.00;100156.44;4971057;28;20436;-81
2022/09/30 01:49:09;;;;;;;6.13;4.50;;;;;;;3.03;100.00;100165.16;4964548;28;20047;-80
2022/09/30 01:51:52;;;;;;;8.47;4.30;;;;;;;3.00;100.00;100178.16;4952993;28;20070;-82
2022/09/30 01:54:38;;;;;;;9.50;5.07;;;;;;;3.03;100.00;100161.66;4969340;28;20094;-80
2022/09/30 01:57:10;;;;;;;8.00;4.33;;;;;;;2.92;100.00;100163.34;4956945;28;20051;-81
2022/09/30 01:59:43;;;;;;;7.33;4.50;;;;;;;2.83;100.00;100167.69;4962411;28;20071;-81
2022/09/30 02:02:28;;;;;;;5.43;4.10;;;;;;;2.77;100.00;100174.59;4971598;28;20035;-81
2022/09/30 02:04:59;;;;;;;7.18;4.95;;;;;;;2.71;100.00;100180.69;4950791;28;20844;-81
2022/09/30 02:07:32;;;;;;;6.43;4.67;;;;;;;2.76;100.00;100175.47;4954645;28;20038;-81
2022/09/30 02:10:02;;;;;;;7.57;4.90;;;;;;;2.69;100.00;100185.03;4949368;28;20064;-81
2022/09/30 02:12:34;;;;;;;5.83;4.40;;;;;;;2.67;100.00;100180.66;4960940;28;20058;-81
2022/09/30 02:15:09;;;;;;;7.80;4.43;;;;;;;2.69;100.00;100184.16;4952312;29;20145;-81
2022/09/30 02:17:42;;;;;;;7.50;4.30;;;;;;;2.78;100.00;100189.44;4939436;28;20113;-81
2022/09/30 02:20:16;;;;;;;7.20;5.20;;;;;;;2.78;100.00;100184.22;4983155;28;20043;-82
2022/09/30 02:22:45;;;;;;;7.88;4.55;;;;;;;2.76;100.00;100186.78;4976956;28;20043;-82
2022/09/30 02:25:24;;;;;;;6.90;4.40;;;;;;;2.61;100.00;100175.44;4962109;28;20027;-81
2022/09/30 02:27:58;;;;;;;9.83;5.07;;;;;;;2.53;100.00;100178.03;4970056;28;20023;-82
2022/09/30 02:30:24;;;;;;;5.73;4.07;;;;;;;2.56;100.00;100178.03;4963570;28;20078;-82
2022/09/30 02:32:55;;;;;;;7.17;4.73;;;;;;;2.65;100.00;100196.31;5010428;28;20039;-83
2022/09/30 02:35:28;;;;;;;6.17;4.30;;;;;;;2.62;100.00;100188.50;4994299;28;20039;-82
2022/09/30 02:38:02;;;;;;;5.27;4.23;;;;;;;2.56;100.00;100185.84;4980464;28;20034;-82
2022/09/30 02:40:47;;;;;;;8.73;4.70;;;;;;;2.49;100.00;100187.56;4993554;28;20047;-82
2022/09/30 02:43:13;;;;;;;;;;;;;;;2.47;100.00;100191.91;4995306;28;20105;-81
2022/09/30 02:46:14;;;;;;;7.87;3.80;;;;;;;2.38;100.00;100197.06;4970954;28;19906;-82
2022/09/30 02:49:02;;;;;;;6.33;3.87;;;;;;;2.50;100.00;100196.25;4956493;28;20051;-82
2022/09/30 02:51:48;;;;;;;6.50;4.57;;;;;;;2.47;100.00;100193.63;4986106;28;20019;-82
2022/09/30 02:54:26;;;;;;;6.60;4.20;;;;;;;2.34;100.00;100194.41;4976451;28;20038;-82
2022/09/30 02:56:57;;;;;;;7.53;3.83;;;;;;;2.40;100.00;100194.47;4983876;28;20031;-82
2022/09/30 02:59:25;;;;;;;7.40;4.37;;;;;;;2.42;100.00;100201.41;4995369;28;20035;-82
2022/09/30 03:01:52;;;;;;;8.13;4.20;;;;;;;2.37;100.00;100210.97;4976691;28;20039;-80
2022/09/30 03:04:22;;;;;;;5.97;3.50;;;;;;;2.30;100.00;100205.72;4962581;28;20039;-82
2022/09/30 03:06:49;;;;;;;7.40;4.60;;;;;;;2.28;100.00;100199.63;4996154;28;20031;-82
2022/09/30 03:09:15;;;;;;;6.20;4.13;;;;;;;2.24;100.00;100204.78;4969205;28;20046;-80
2022/09/30 03:11:42;;;;;;;9.50;5.17;;;;;;;2.24;100.00;100198.72;4942930;28;20045;-81
2022/09/30 03:14:30;;;;;;;5.57;4.00;;;;;;;2.30;100.00;100203.97;4959327;28;20043;-81
2022/09/30 03:17:20;;;;;;;6.53;4.10;;;;;;;2.37;100.00;100204.88;4976540;28;20623;-81
2022/09/30 03:19:57;;;;;;;8.17;4.07;;;;;;;2.32;100.00;100207.44;4942658;28;20444;-81
2022/09/30 03:22:51;;;;;;;8.07;4.73;;;;;;;2.31;100.00;100212.66;4942256;28;20051;-81
2022/09/30 03:25:39;;;;;;;7.80;4.37;;;;;;;2.21;100.00;100209.13;4929422;28;20062;-81
2022/09/30 03:28:24;;;;;;;6.53;4.43;;;;;;;2.23;100.00;100218.69;4956938;29;20039;-81
2022/09/30 03:30:59;;;;;;;6.00;4.20;;;;;;;2.22;100.00;100213.47;4956068;28;20390;-80
2022/09/30 03:33:51;;;;;;;7.30;4.57;;;;;;;2.26;100.00;100215.22;4942366;29;20106;-81
2022/09/30 03:36:40;;;;;;;7.50;4.37;;;;;;;2.14;100.00;100217.78;4959122;28;20102;-82
2022/09/30 03:39:17;;;;;;;7.27;4.47;;;;;;;2.11;100.00;100222.97;4972871;28;20045;-80
2022/09/30 03:41:51;;;;;;;5.40;4.10;;;;;;;2.07;100.00;100224.66;4952291;29;20436;-81
2022/09/30 03:44:24;;;;;;;6.07;4.25;;;;;;;2.08;100.00;100231.63;4939022;29;20043;-81
2022/09/30 03:47:02;;;;;;;7.57;4.70;;;;;;;2.13;100.00;100232.53;4953726;28;20058;-82
2022/09/30 03:49:33;;;;;;;5.83;4.23;;;;;;;2.13;100.00;100239.47;4958424;28;20456;-80
2022/09/30 03:52:04;;;;;;;6.97;4.70;;;;;;;2.07;100.00;100234.22;4971954;28;20089;-80
2022/09/30 03:54:32;;;;;;;6.07;4.37;;;;;;;2.05;100.00;100239.44;4954826;28;20043;-81
2022/09/30 03:57:02;;;;;;;6.73;4.30;;;;;;;2.00;100.00;100230.69;4961842;28;20094;-81
2022/09/30 03:59:28;;;;;;;6.30;4.10;;;;;;;1.90;100.00;100239.31;4974727;28;20563;-80
2022/09/30 04:01:56;;;;;;;7.03;4.60;;;;;;;1.92;100.00;100234.97;4958614;28;20039;-81
2022/09/30 04:04:23;;;;;;;6.93;4.87;;;;;;;1.87;100.00;100242.75;4974714;28;20627;-81
2022/09/30 04:06:49;;;;;;;7.43;4.43;;;;;;;1.87;100.00;100241.91;4943383;28;20427;-82
2022/09/30 04:09:16;;;;;;;9.27;4.93;;;;;;;1.91;100.00;100241.91;4976689;28;20049;-81
2022/09/30 04:11:43;;;;;;;7.97;4.53;;;;;;;2.03;100.00;100246.38;4958269;28;20035;-82
2022/09/30 04:14:09;;;;;;;7.40;4.63;;;;;;;2.10;100.00;100242.03;4959513;28;20045;-82
2022/09/30 04:16:36;;;;;;;7.43;4.97;;;;;;;1.97;100.00;100249.78;4974842;28;20037;-82
2022/09/30 04:19:04;;;;;;;5.43;4.23;;;;;;;2.03;100.00;100250.72;4945820;28;20043;-82
2022/09/30 04:21:31;;;;;;;9.33;5.77;;;;;;;1.95;100.00;100256.72;4942340;28;20051;-82
2022/09/30 04:23:57;;;;;;;6.70;4.53;;;;;;;1.87;100.00;100260.13;4966649;28;20055;-81
2022/09/30 04:26:24;;;;;;;6.80;4.70;;;;;;;1.89;100.00;100259.28;4943508;28;20062;-82
2022/09/30 04:28:51;;;;;;;5.93;4.43;;;;;;;1.92;100.00;100258.41;4962277;28;20058;-83
2022/09/30 04:31:20;;;;;;;5.37;3.97;;;;;;;1.91;100.00;100261.88;4948257;28;20042;-83
2022/09/30 04:33:47;;;;;;;7.30;4.17;;;;;;;2.00;100.00;100261.09;4980659;28;20058;-84
2022/09/30 04:36:13;;;;;;;7.10;4.57;;;;;;;2.00;100.00;100263.69;4963559;28;20042;-84
2022/09/30 04:38:40;;;;;;;6.40;4.13;;;;;;;2.06;100.00;100262.00;4963223;28;20057;-82
2022/09/30 04:41:08;;;;;;;6.93;4.23;;;;;;;2.13;100.00;100261.19;4963034;28;20055;-84
2022/09/30 04:43:35;;;;;;;7.57;4.67;;;;;;;2.08;100.00;100269.84;4941018;28;20073;-83
2022/09/30 04:46:02;;;;;;;11.43;5.00;;;;;;;1.93;100.00;100265.38;4946668;28;20066;-83
2022/09/30 04:48:30;;;;;;;14.17;4.97;;;;;;;1.82;100.00;100273.09;4962153;28;20101;-82
2022/09/30 04:50:58;;;;;;;6.83;4.57;;;;;;;1.83;100.00;100274.84;4962105;28;20120;-82
2022/09/30 04:53:25;;;;;;;8.80;4.93;;;;;;;1.76;100.00;100285.19;4994376;28;20050;-84
2022/09/30 04:55:58;;;;;;;6.17;4.07;;;;;;;1.74;100.00;100289.50;4976804;28;20049;-82
2022/09/30 04:58:25;;;;;;;4.77;3.70;;;;;;;1.72;100.00;100292.13;4976355;28;20046;-81
2022/09/30 05:00:59;;;;;;;7.00;3.93;;;;;;;1.77;100.00;100284.34;4979557;28;20046;-83
2022/09/30 05:03:25;;;;;;;5.32;4.00;;;;;;;1.81;100.00;100306.94;4946246;28;20049;-81
2022/09/30 05:05:52;;;;;;;7.73;4.53;;;;;;;1.81;100.00;100291.31;4945087;29;20620;-81
2022/09/30 05:08:19;;;;;;;7.83;4.50;;;;;;;1.80;100.00;100303.47;4945106;29;20059;-81
2022/09/30 05:10:56;;;;;;;6.80;4.07;;;;;;;1.76;100.00;100301.69;4944545;29;20047;-81
2022/09/30 05:13:24;;;;;;;6.53;4.10;;;;;;;1.73;100.00;100301.66;4970786;28;20047;-82
2022/09/30 05:15:51;;;;;;;6.10;3.90;;;;;;;1.74;100.00;100307.75;4961802;28;20063;-82
2022/09/30 05:18:18;;;;;;;6.37;4.30;;;;;;;1.71;100.00;100306.00;4942918;29;20047;-81
2022/09/30 05:20:48;;;;;;;6.83;4.57;;;;;;;1.76;100.00;100312.09;4943152;28;20094;-82
2022/09/30 05:23:15;;;;;;;8.43;5.13;;;;;;;1.84;100.00;100313.06;4942182;29;20058;-82
2022/09/30 05:25:42;;;;;;;6.63;4.60;;;;;;;1.89;100.00;100307.91;4961632;28;20050;-81
2022/09/30 05:28:09;;;;;;;7.87;4.50;;;;;;;1.87;100.00;100312.22;4962395;28;20101;-81
2022/09/30 05:30:35;;;;;;;7.07;4.67;;;;;;;1.89;100.00;100315.72;4980025;28;20053;-82
2022/09/30 05:33:02;;;;;;;5.60;4.30;;;;;;;1.89;100.00;100323.53;4964038;28;20054;-81
2022/09/30 05:35:28;;;;;;;5.67;4.27;;;;;;;1.92;100.00;100321.81;4964230;28;20050;-81
2022/09/30 05:37:55;;;;;;;6.57;4.20;;;;;;;1.90;100.00;100333.09;4979501;28;20069;-83
2022/09/30 05:40:22;;;;;;;7.43;4.60;;;;;;;1.88;100.00;100329.59;4963491;28;20053;-81
2022/09/30 05:42:49;;;;;;;6.47;4.50;;;;;;;1.93;100.00;100328.78;4979179;28;20057;-81
2022/09/30 05:45:15;;;;;;;6.87;4.33;;;;;;;1.96;100.00;100334.00;4964018;28;20620;-82
2022/09/30 05:47:42;;;;;;;6.90;4.27;;;;;;;2.02;100.00;100334.91;4963179;28;20599;-82
2022/09/30 05:50:09;;;;;;;6.30;4.23;;;;;;;2.00;100.00;100327.09;4969583;28;20043;-82
2022/09/30 05:52:35;;;;;;;7.43;5.63;;;;;;;2.09;100.00;100334.97;4973013;28;20056;-83
2022/09/30 05:55:02;;;;;;;6.43;4.17;;;;;;;2.11;100.00;100332.41;4970702;28;20183;-82
2022/09/30 05:57:29;;;;;;;7.60;4.00;;;;;;;2.11;100.00;100337.63;4986497;28;20042;-83
2022/09/30 05:59:56;;;;;;;6.77;4.50;;;;;;;2.06;100.00;100345.38;4969653;28;20042;-83
2022/09/30 06:02:23;;;;;;;6.33;4.23;;;;;;;2.06;100.00;100345.38;4984198;28;20046;-83
2022/09/30 06:04:50;;;;;;;5.60;4.20;;;;;;;2.08;100.00;100343.66;4984137;28;20046;-82
2022/09/30 06:07:17;;;;;;;8.20;4.73;;;;;;;2.07;100.00;100346.25;4964195;28;20038;-83
2022/09/30 06:09:44;;;;;;;7.03;4.40;;;;;;;2.08;100.00;100348.00;4979585;28;20053;-82
2022/09/30 06:12:11;;;;;;;7.70;5.03;;;;;;;2.10;100.00;100343.66;4977351;28;20056;-81
2022/09/30 06:14:38;;;;;;;6.17;4.60;;;;;;;2.19;100.00;100343.78;4966510;28;20042;-81
2022/09/30 06:17:05;;;;;;;6.53;4.00;;;;;;;2.35;100.00;100347.34;4965557;28;20416;-82
2022/09/30 06:19:32;;;;;;;6.97;4.30;;;;;;;2.42;100.00;100356.97;4949103;28;20443;-82
2022/09/30 06:21:59;;;;;;;7.50;4.20;;;;;;;2.39;100.00;100351.75;4965266;28;20077;-82
2022/09/30 06:24:25;;;;;;;6.60;4.43;;;;;;;2.42;100.00;100359.59;4964581;28;20499;-81
2022/09/30 06:26:53;;;;;;;9.13;4.80;;;;;;;2.43;100.00;100364.78;4964089;28;20403;-82
2022/09/30 06:29:19;;;;;;;7.03;4.00;;;;;;;2.51;100.00;100368.34;4964080;28;20046;-82
2022/09/30 06:31:47;;;;;;;6.53;4.47;;;;;;;2.59;100.00;100368.41;4979003;28;20137;-81
2022/09/30 06:34:13;;;;;;;6.23;3.67;;;;;;;2.63;100.00;100371.91;4966626;28;20044;-82
2022/09/30 06:36:40;;;;;;;6.23;4.23;;;;;;;2.61;100.00;100365.81;4998543;28;20045;-81
2022/09/30 06:39:07;;;;;;;5.87;3.80;;;;;;;2.68;100.00;100375.41;4983002;28;20092;-81
2022/09/30 06:41:42;;;;;;;7.40;4.40;;;;;;;2.73;100.00;100371.97;5020024;23;20033;-84
2022/09/30 06:44:09;;;;;;;6.83;4.63;;;;;;;2.77;100.00;100368.50;5025174;28;20057;-84
2022/09/30 06:46:36;;;;;;;7.97;5.13;;;;;;;2.84;100.00;100374.66;5016947;28;20453;-84
2022/09/30 06:49:18;;;;;;;6.70;4.37;;;;;;;2.95;100.00;100372.13;5007669;28;20087;-82
2022/09/30 06:51:45;;;;;;;5.87;4.03;;;;;;;3.01;100.00;100379.97;5007913;28;20045;-82
2022/09/30 06:54:12;;;;;;;5.07;3.60;;;;;;;3.12;100.00;100380.94;5001988;28;20041;-80
2022/09/30 06:56:38;;;;;;;6.00;4.27;;;;;;;3.22;100.00;100379.22;5025053;23;20037;-79
2022/09/30 06:59:05;;;;;;;7.03;3.90;;;;;;;3.37;100.00;100381.91;5002503;28;20054;-82
2022/09/30 07:01:32;;;;;;;7.53;4.00;;;;;;;3.51;100.00;100384.56;5030837;28;20080;-78
2022/09/30 07:03:59;;;;;;;6.80;4.20;;;;;;;3.64;100.00;100389.84;5042408;28;20041;-79
2022/09/30 07:06:26;;;;;;;7.67;4.73;;;;;;;3.80;100.00;100393.38;5041919;28;20604;-81
2022/09/30 07:08:53;;;;;;;6.63;4.30;;;;;;;4.07;100.00;100394.31;4981375;28;20050;-81
2022/09/30 07:11:20;;;;;;;6.73;4.40;;;;;;;4.32;100.00;100398.69;5011652;28;20528;-81
2022/09/30 07:13:48;;;;;;;9.60;5.77;;;;;;;4.52;100.00;100399.56;5027626;28;20033;-80
2022/09/30 07:16:18;;;;;;;5.87;4.20;;;;;;;4.77;100.00;100402.16;5010034;28;20128;-81
2022/09/30 07:18:45;;;;;;;8.47;5.57;;;;;;;5.03;100.00;100399.50;5026742;28;20444;-80
2022/09/30 07:21:14;;;;;;;7.53;4.90;;;;;;;5.23;100.00;100396.84;5026728;28;20386;-79
2022/09/30 07:23:46;;;;;;;6.27;4.83;;;;;;;5.45;100.00;100403.75;5056899;28;20041;-79
2022/09/30 07:26:18;;;;;;;8.33;4.37;;;;;;;5.61;100.00;100399.31;5005128;28;20040;-79
2022/09/30 07:28:45;;;;;;;6.27;4.37;;;;;;;5.75;100.00;100402.75;5021446;28;20644;-79
2022/09/30 07:31:18;;;;;;;6.37;4.00;;;;;;;5.88;100.00;100407.03;5020147;28;20064;-78
2022/09/30 07:33:58;;;;;;;4.60;3.50;;;;;;;6.02;100.00;100398.25;5012067;28;20048;-78
2022/09/30 07:36:31;;;;;;;5.60;3.97;;;;;;;6.18;100.00;100400.78;5026220;28;20036;-79
2022/09/30 07:39:04;;;;;;;7.33;4.07;;;;;;;6.31;100.00;100409.44;5018479;28;20047;-78
2022/09/30 07:41:32;;;;;;;6.73;5.10;;;;;;;6.46;100.00;100398.81;5034336;28;20437;-78
2022/09/30 07:43:59;;;;;;;6.93;5.07;;;;;;;6.63;100.00;100403.91;5007048;28;20041;-78
2022/09/30 07:46:29;;;;;;;7.93;5.57;;;;;;;6.81;100.00;100405.53;4987848;28;20064;-79
2022/09/30 07:48:59;;;;;;;8.30;5.40;;;;;;;6.90;100.00;100410.69;5016605;28;20056;-78
2022/09/30 07:51:30;;;;;;;8.20;6.00;;;;;;;7.15;100.00;100410.47;5018505;28;20044;-79
2022/09/30 07:53:59;;;;;;;9.60;6.80;;;;;;;7.30;100.00;100405.88;5031239;28;20379;-78
2022/09/30 07:56:26;;;;;;;11.27;7.40;;;;;;;7.39;100.00;100398.78;5017328;28;20044;-79
2022/09/30 07:58:59;;;;;;;12.77;7.27;;;;;;;7.63;100.00;100416.88;5034421;28;20095;-78
2022/09/30 08:01:30;;;;;;;10.87;7.50;;;;;;;7.82;100.00;100407.91;5034923;28;20044;-79
2022/09/30 08:03:59;;;;;;;11.57;6.70;;;;;;;7.83;100.00;100411.41;5034989;28;20094;-79
2022/09/30 08:06:27;;;;;;;7.90;5.97;;;;;;;7.94;100.00;100420.00;5018598;28;20494;-78
2022/09/30 08:08:55;;;;;;;9.70;6.27;;;;;;;8.00;100.00;100427.81;5034747;28;20037;-79
2022/09/30 08:11:23;;;;;;;7.27;5.40;;;;;;;8.18;100.00;100431.94;5034543;28;20045;-78
2022/09/30 08:13:51;;;;;;;8.43;6.00;;;;;;;8.32;100.00;100424.69;5034564;28;20064;-79
2022/09/30 08:16:19;;;;;;;8.27;5.17;;;;;;;8.49;100.00;100426.25;5034592;28;20455;-78
2022/09/30 08:18:46;;;;;;;7.33;5.47;;;;;;;8.60;100.00;100426.97;5017829;28;20049;-78
2022/09/30 08:21:13;;;;;;;6.65;5.20;;;;;;;8.64;100.00;100421.59;4999470;28;20049;-78
2022/09/30 08:23:39;;;;;;;7.30;5.97;;;;;;;8.78;100.00;100424.03;5020989;28;20402;-78
2022/09/30 08:26:08;;;;;;;8.32;5.50;;;;;;;8.93;100.00;100429.03;5007014;28;20045;-78
2022/09/30 08:28:37;;;;;;;7.18;4.93;;;;;;;8.91;100.00;100430.84;5026538;28;20605;-78
2022/09/30 08:31:09;;;;;;;8.07;5.27;;;;;;;8.98;100.00;100442.97;5034994;28;20048;-78
2022/09/30 08:33:36;;;;;;;7.45;5.70;;;;;;;9.05;100.00;100438.47;5052215;28;20482;-78
2022/09/30 08:36:05;;;;;;;7.03;5.50;;;;;;;9.08;100.00;100441.06;5035391;28;20485;-78
2022/09/30 08:38:32;;;;;;;8.35;4.63;;;;;;;9.22;100.00;100440.81;5020715;28;20037;-78
2022/09/30 08:41:23;;;;;;;7.65;5.10;;;;;;;9.35;100.00;100439.69;5019111;28;20059;-79
2022/09/30 08:44:23;;;;;;;6.55;4.95;;;;;;;9.54;100.00;100437.56;5040192;28;20045;-79
2022/09/30 08:47:22;;;;;;;7.32;5.20;;;;;;;9.73;100.00;100438.91;5030052;28;20033;-78
2022/09/30 08:49:59;;;;;;;6.53;4.57;;;;;;;10.04;100.00;100440.91;5023168;28;20114;-78
2022/09/30 08:52:28;;;;;;;6.15;4.40;;;;;;;10.28;100.00;100447.47;5020839;28;20522;-77
2022/09/30 08:55:20;;;;;;;5.45;4.15;;;;;;;10.61;100.00;100448.47;5031734;28;20033;-78
2022/09/30 08:57:47;;;;;;;6.13;4.23;;;;;;;10.87;100.00;100447.81;5046797;28;20083;-79
2022/09/30 09:00:16;;;;;;;5.13;3.63;;;;;;;11.22;100.00;100442.47;5041081;28;20283;-79
2022/09/30 09:02:45;;;;;;;5.45;4.75;;;;;;;11.45;100.00;100451.59;5023077;28;20136;-79
2022/09/30 09:05:19;;;;;;;7.28;3.45;;;;;;;11.80;100.00;100440.91;5030221;28;20048;-79
2022/09/30 09:08:23;;;;;;;4.28;3.60;;;;;;;12.15;97.45;100451.34;5038233;28;20033;-78
2022/09/30 09:11:07;;;;;;;4.28;3.40;;;;;;;12.42;97.88;100445.19;5032411;28;20091;-81
2022/09/30 09:14:01;;;;;;;5.10;3.83;;;;;;;12.84;90.25;100442.94;4985663;28;20076;-82
2022/09/30 09:16:34;;;;;;;3.53;3.22;;;;;;;13.12;90.55;100442.91;5022563;28;20052;-81
2022/09/30 09:19:16;;;;;;;4.05;3.47;;;;;;;13.32;86.75;100449.31;5026873;28;20515;-82
2022/09/30 09:21:52;;;;;;;4.32;2.97;;;;;;;13.53;85.04;100444.09;5002019;28;20041;-81
2022/09/30 09:24:27;;;;;;;3.83;3.00;;;;;;;13.76;87.56;100439.75;5044891;28;20045;-81
2022/09/30 09:26:56;;;;;;;4.07;3.28;;;;;;;14.04;80.79;100437.81;5033326;28;20042;-81
2022/09/30 09:29:33;;;;;;;4.80;3.08;;;;;;;14.15;77.17;100444.50;5022076;28;20044;-81
2022/09/30 09:32:02;;;;;;;4.50;3.20;;;;;;;14.34;77.60;100449.03;5023005;28;20091;-81
2022/09/30 09:34:29;;;;;;;3.60;2.75;;;;;;;14.49;75.86;100436.94;5024136;28;20040;-81
2022/09/30 09:37:03;;;;;;;4.15;3.20;;;;;;;14.58;72.49;100443.69;5023038;28;20036;-81
2022/09/30 09:39:43;;;;;;;3.50;2.88;;;;;;;14.75;74.08;100446.53;5042429;28;20044;-82
2022/09/30 09:42:32;;;;;;;3.83;2.55;;;;;;;14.97;76.48;100446.53;5018076;28;20037;-82
2022/09/30 09:45:04;;;;;;;3.50;2.95;;;;;;;15.01;72.18;100440.13;5003498;28;20079;-78
2022/09/30 09:47:31;;;;;;;3.75;2.70;;;;;;;15.08;72.08;100430.97;5038103;28;20685;-79
2022/09/30 09:50:03;;;;;;;4.30;2.60;;;;;;;15.18;70.80;100429.63;5050325;28;20041;-79
2022/09/30 09:53:09;;;;;;;4.18;2.67;;;;;;;15.49;68.69;100433.63;5003662;28;20064;-79
2022/09/30 09:55:37;;;;;;;4.75;3.08;;;;;;;15.50;65.30;100422.03;5035305;28;20045;-78
2022/09/30 09:58:05;;;;;;;4.47;2.78;;;;;;;15.53;68.21;100429.00;5040931;28;20033;-80
2022/09/30 10:03:19;;;;;;;4.93;3.15;;;;;;;15.88;68.14;100419.44;5028045;28;20052;-79
2022/09/30 10:05:58;;;;;;;4.03;3.20;;;;;;;15.95;67.60;100423.56;5048489;28;20033;-81
2022/09/30 10:08:25;;;;;;;4.37;3.00;;;;;;;15.98;64.83;100426.09;5125500;22;20037;-79
2022/09/30 10:10:57;;;;;;;5.63;3.70;;;;;;;15.95;64.39;100419.09;5015975;28;20132;-84
2022/09/30 10:13:39;;;;;;;4.88;3.22;;;;;;;16.08;66.47;100423.88;5001485;28;20071;-83
2022/09/30 10:16:26;;;;;;;3.97;3.58;;;;;;;16.02;64.94;100415.22;5024422;28;20032;-82
2022/09/30 10:18:53;;;;;;;5.47;3.40;;;;;;;15.90;64.88;100406.94;5031346;28;20033;-82
2022/09/30 10:21:21;;;;;;;5.38;3.65;;;;;;;16.04;69.99;100417.81;5020121;28;20612;-83
2022/09/30 10:23:48;;;;;;;4.40;3.35;;;;;;;16.02;67.57;100409.88;5028919;28;20095;-81
2022/09/30 10:26:20;;;;;;;6.03;4.07;;;;;;;15.83;66.71;100421.47;5034131;28;20045;-83
2022/09/30 10:29:00;;;;;;;4.25;3.85;;;;;;;15.84;67.21;100415.22;5017926;28;20055;-82
2022/09/30 10:31:34;;;;;;;4.75;3.30;;;;;;;16.00;68.36;100419.75;5012041;28;20048;-82
2022/09/30 10:34:10;;;;;;;6.00;3.70;;;;;;;16.16;64.50;100421.72;5032431;28;20106;-81
2022/09/30 10:36:38;;;;;;;4.78;3.58;;;;;;;16.15;62.49;100420.84;5042907;28;20045;-81
2022/09/30 10:39:07;;;;;;;4.00;3.17;;;;;;;16.33;63.80;100421.78;4996014;28;20107;-81
2022/09/30 10:41:36;;;;;;;7.07;3.00;;;;;;;16.27;62.93;100420.25;5028422;28;20045;-82
2022/09/30 10:44:06;;;;;;;7.97;5.45;;;;;;;16.23;62.59;100418.69;5034230;28;20040;-81
2022/09/30 10:46:38;;;;;;;8.40;5.53;;;;;;;16.06;62.61;100415.97;5014904;28;20521;-82
2022/09/30 10:49:09;;;;;;;6.70;3.55;;;;;;;16.07;61.82;100407.03;5025432;28;20048;-81
2022/09/30 10:51:36;;;;;;;4.07;2.70;;;;;;;16.27;66.94;100406.91;5017220;28;20041;-82
2022/09/30 10:54:04;;;;;;;3.88;2.60;;;;;;;16.51;61.49;100409.34;5012817;28;20098;-81
2022/09/30 10:56:37;;;;;;;3.60;2.50;;;;;;;16.53;62.61;100391.47;5007297;28;20036;-81
2022/09/30 10:59:20;;;;;;;4.20;3.10;;;;;;;16.68;60.72;100398.72;5012269;28;20041;-82
2022/09/30 11:01:50;;;;;;;3.88;3.08;;;;;;;16.72;58.55;100405.63;5045347;28;20501;-82
2022/09/30 11:04:36;;;;;;;3.55;2.85;;;;;;;16.62;59.59;100399.00;5013191;28;20080;-82
2022/09/30 11:07:13;;;;;;;6.25;2.95;;;;;;;16.72;59.68;100402.09;5024904;28;20052;-82
2022/09/30 11:09:49;;;;;;;4.72;3.17;;;;;;;16.58;59.19;100405.44;5021693;28;20051;-82
2022/09/30 11:12:24;;;;;;;4.57;2.30;;;;;;;16.33;61.01;100401.31;5013128;28;20052;-81
2022/09/30 11:14:58;;;;;;;3.13;2.45;;;;;;;16.31;62.72;100394.28;5013546;28;20049;-81
2022/09/30 11:17:42;;;;;;;;;;;;;;;16.41;62.35;100395.59;5033116;28;20052;-82
2022/09/30 11:20:19;;;;;;;3.60;2.60;;;;;;;16.59;62.35;100392.03;5014803;28;19921;-81
2022/09/30 11:23:15;;;;;;;3.05;2.67;;;;;;;16.62;58.79;100391.00;4999513;28;20102;-81
2022/09/30 11:25:50;;;;;;;3.55;2.40;;;;;;;16.36;57.95;100391.44;4999678;28;20126;-81
2022/09/30 11:28:28;;;;;;;4.30;2.70;;;;;;;16.45;61.76;100396.31;5001185;28;20482;-83
2022/09/30 11:31:14;;;;;;;3.45;2.78;;;;;;;16.61;58.13;100394.63;5041410;28;20414;-82
2022/09/30 11:33:59;;;;;;;3.92;2.60;;;;;;;16.55;58.06;100389.56;5033052;28;20493;-82
2022/09/30 11:36:58;;;;;;;5.45;2.70;;;;;;;16.66;58.57;100383.72;5013099;28;20037;-80
2022/09/30 11:39:59;;;;;;;3.30;2.40;;;;;;;16.84;56.41;100377.50;5026305;28;20508;-82
2022/09/30 11:42:45;;;;;;;3.60;2.28;;;;;;;16.70;56.48;100375.50;5032955;28;20041;-82
2022/09/30 11:45:24;;;;;;;4.07;2.70;;;;;;;16.67;56.98;100380.13;5016305;28;20045;-81
2022/09/30 11:48:00;;;;;;;3.15;2.63;;;;;;;16.79;54.68;100377.72;5004162;28;20042;-80
2022/09/30 11:50:55;;;;;;;3.03;2.65;;;;;;;16.89;56.00;100370.97;5026474;28;20509;-82
2022/09/30 11:53:43;;;;;;;2.65;2.17;;;;;;;16.81;57.69;100378.50;4991500;28;20095;-80